Vancouver — WDG2203 — position and weather

sailwx.info

Track history (hours):
 
Tides and Currents Weather Stations Pressure Air Temp Water Temp Dewpoint Dewpoint Depression Visibility Wind Speed Wind Dir Waves Ship Positions

Vancouver

Owner: Shaver Transportation Company, Portland, OR. More information available from US FCC via Universal Licensing System and Coast Guard Vessel Documentation Center.

Last reported at 2018-Jun-19 06:28 UTC. Time now 2018-Jun-19 06:51 UTC.
Position N 46°05' W 122°56'.

Length 23 m.

Type: Tug. MMSI: 367513220.

Date/timePositionNaut miles runAvg speedWind from/ knotsBaromVisibWave heightAir tempDewpointWater temp
2018-Jun-19 06:28N 46°05' W 122°56'0 0.0
2018-Jun-19 05:58N 46°05' W 122°56'0 0.0
2018-Jun-19 05:25N 46°05' W 122°56'0 0.0
2018-Jun-19 04:58N 46°05' W 122°56'0 0.0
2018-Jun-19 04:25N 46°05' W 122°56'0 0.0
2018-Jun-19 03:58N 46°05' W 122°56'0 0.0
2018-Jun-19 03:22N 46°05' W 122°56'0 0.0
2018-Jun-19 02:55N 46°05' W 122°56'0 0.0
2018-Jun-19 02:28N 46°05' W 122°56'0 0.0
2018-Jun-19 01:52N 46°05' W 122°56'0 0.0
2018-Jun-19 01:28N 46°05' W 122°56'0 0.0
2018-Jun-19 00:58N 46°05' W 122°56'0 0.0
2018-Jun-19 00:28N 46°05' W 122°56'0 0.0
2018-Jun-18 23:58N 46°05' W 122°56'0 0.0
2018-Jun-18 23:28N 46°05' W 122°56'0 0.0
2018-Jun-18 22:58N 46°05' W 122°56'0 0.0
2018-Jun-18 22:28N 46°05' W 122°56'0 0.0
2018-Jun-18 21:58N 46°05' W 122°56'0 0.0
2018-Jun-18 21:25N 46°05' W 122°56'0 0.0
2018-Jun-18 20:58N 46°05' W 122°56'0 0.0
2018-Jun-18 20:19N 46°05' W 122°56'0 0.0
2018-Jun-18 19:46N 46°05' W 122°56'2 6.1
2018-Jun-18 19:30N 46°05' W 122°54'612.4
2018-Jun-18 19:00N 45°59' W 122°50'1 1.2
2018-Jun-18 18:30N 45°59' W 122°51'2 3.4
2018-Jun-18 17:46N 46°02' W 122°52'2 4.6
2018-Jun-18 17:21N 46°03' W 122°53'2 6.6
2018-Jun-18 17:00N 46°05' W 122°55'1 1.1
2018-Jun-18 16:30N 46°05' W 122°56'0 0.0
2018-Jun-18 16:00N 46°05' W 122°56'0 0.0
2018-Jun-18 15:30N 46°05' W 122°56'0 0.0
2018-Jun-18 15:00N 46°05' W 122°56'0 0.0
2018-Jun-18 14:30N 46°05' W 122°56'0 0.0
2018-Jun-18 13:51N 46°05' W 122°56'0 0.0
2018-Jun-18 13:21N 46°05' W 122°56'0 0.0
2018-Jun-18 13:00N 46°05' W 122°56'0 0.0
2018-Jun-18 12:30N 46°05' W 122°56'0 0.0
2018-Jun-18 12:00N 46°05' W 122°56'0 0.0
2018-Jun-18 11:30N 46°05' W 122°56'0 0.0
2018-Jun-18 11:00N 46°05' W 122°56'0 0.0
2018-Jun-18 10:27N 46°05' W 122°56'0 0.0
2018-Jun-18 09:54N 46°05' W 122°56'0 0.0
2018-Jun-18 09:18N 46°05' W 122°56'0 0.0
2018-Jun-18 08:57N 46°05' W 122°56'0 0.0
2018-Jun-18 08:30N 46°05' W 122°56'0 0.0
2018-Jun-18 07:57N 46°05' W 122°56'0 0.0
2018-Jun-18 07:30N 46°05' W 122°56'0 0.0
2018-Jun-18 06:57N 46°05' W 122°56'0 0.0
2018-Jun-18 06:18N 46°05' W 122°56'0 0.0
2018-Jun-18 06:00N 46°05' W 122°56'0 0.0
2018-Jun-18 05:30N 46°05' W 122°56'0 0.0
2018-Jun-18 05:00N 46°05' W 122°56'0 0.0
2018-Jun-18 04:24N 46°05' W 122°56'0 0.0
2018-Jun-18 03:57N 46°05' W 122°56'0 0.0
2018-Jun-18 03:30N 46°05' W 122°56'0 0.0
2018-Jun-18 02:57N 46°05' W 122°56'0 0.0
2018-Jun-18 02:03N 46°05' W 122°56'0 0.0
2018-Jun-18 01:39N 46°05' W 122°56'0 0.0
2018-Jun-18 01:27N 46°05' W 122°56'0 0.0
2018-Jun-18 01:00N 46°05' W 122°56'0 0.0
2018-Jun-18 00:21N 46°05' W 122°56'0 0.0
2018-Jun-18 00:00N 46°05' W 122°56'0 0.0
2018-Jun-17 23:30N 46°05' W 122°56'0 0.0
2018-Jun-17 22:42N 46°05' W 122°56'0 0.0
2018-Jun-17 22:30N 46°05' W 122°56'1 1.8
2018-Jun-17 22:00N 46°06' W 122°57'1 0.5
2018-Jun-17 20:14N 46°05' W 122°56'0 0.0
2018-Jun-17 19:59N 46°05' W 122°56'0 0.0
2018-Jun-17 19:26N 46°05' W 122°56'0 0.0
2018-Jun-17 18:59N 46°05' W 122°56'0 0.0
2018-Jun-17 18:29N 46°05' W 122°56'0 0.0
2018-Jun-17 17:59N 46°05' W 122°56'0 0.0
2018-Jun-17 17:23N 46°05' W 122°56'0 0.0
2018-Jun-17 16:59N 46°05' W 122°56'0 0.0
2018-Jun-17 16:23N 46°05' W 122°56'0 0.0
2018-Jun-17 15:50N 46°05' W 122°56'0 0.0
2018-Jun-17 15:20N 46°05' W 122°56'0 0.0
2018-Jun-17 14:59N 46°05' W 122°56'0 0.0
2018-Jun-17 14:26N 46°05' W 122°56'0 0.0
2018-Jun-17 13:53N 46°05' W 122°56'0 0.0
2018-Jun-17 13:23N 46°05' W 122°56'0 0.0
2018-Jun-17 12:59N 46°05' W 122°56'0 0.0
2018-Jun-17 12:20N 46°05' W 122°56'0 0.0
2018-Jun-17 11:56N 46°05' W 122°56'0 0.0
2018-Jun-17 11:20N 46°05' W 122°56'0 0.0
2018-Jun-17 10:56N 46°05' W 122°56'0 0.0
2018-Jun-17 10:29N 46°05' W 122°56'0 0.0
2018-Jun-17 09:38N 46°05' W 122°56'0 0.0
2018-Jun-17 09:29N 46°05' W 122°56'0 0.0
2018-Jun-17 08:32N 46°05' W 122°56'0 0.0
2018-Jun-17 08:29N 46°05' W 122°56'0 0.0
2018-Jun-17 07:56N 46°05' W 122°56'0 0.0
2018-Jun-17 07:29N 46°05' W 122°56'0 0.0
2018-Jun-17 06:56N 46°05' W 122°56'0 0.0
2018-Jun-17 06:23N 46°05' W 122°56'0 0.0
2018-Jun-17 05:53N 46°05' W 122°56'0 0.0
2018-Jun-17 05:29N 46°05' W 122°56'0 0.0
2018-Jun-17 04:53N 46°05' W 122°56'0 0.0
2018-Jun-17 04:23N 46°05' W 122°56'0 0.0
2018-Jun-17 03:56N 46°05' W 122°56'0 0.0
2018-Jun-17 03:29N 46°05' W 122°56'0 0.0
2018-Jun-17 02:53N 46°05' W 122°56'0 0.0
2018-Jun-17 02:23N 46°05' W 122°56'0 0.0
2018-Jun-17 01:38N 46°05' W 122°56'0 0.0
2018-Jun-17 01:23N 46°05' W 122°56'0 0.0
2018-Jun-17 00:50N 46°05' W 122°56'0 0.0
2018-Jun-17 00:23N 46°05' W 122°56'0 0.0
2018-Jun-16 23:56N 46°05' W 122°56'0 0.0
2018-Jun-16 23:29N 46°05' W 122°56'0 0.0
2018-Jun-16 22:50N 46°05' W 122°56'0 0.0
2018-Jun-16 22:20N 46°05' W 122°56'0 0.0
2018-Jun-16 21:59N 46°05' W 122°56'0 0.0
2018-Jun-16 21:26N 46°05' W 122°56'0 0.0
2018-Jun-16 20:59N 46°05' W 122°56'0 0.0
2018-Jun-16 20:26N 46°05' W 122°56'0 0.0
2018-Jun-16 19:59N 46°05' W 122°56'0 0.0
2018-Jun-16 19:23N 46°05' W 122°56'0 0.0
2018-Jun-16 18:56N 46°05' W 122°56'0 0.0
2018-Jun-16 18:26N 46°05' W 122°56'0 0.0
2018-Jun-16 17:59N 46°05' W 122°56'0 0.0
2018-Jun-16 17:26N 46°05' W 122°56'0 0.0
2018-Jun-16 16:50N 46°05' W 122°56'0 0.0
2018-Jun-16 16:29N 46°05' W 122°56'0 0.0
2018-Jun-16 15:59N 46°05' W 122°56'0 0.0
2018-Jun-16 15:29N 46°05' W 122°56'0 0.0
2018-Jun-16 14:59N 46°05' W 122°56'0 0.0
2018-Jun-16 14:29N 46°05' W 122°56'0 0.0
2018-Jun-16 13:59N 46°05' W 122°56'0 0.0
2018-Jun-16 13:29N 46°05' W 122°56'0 0.0
2018-Jun-16 12:59N 46°05' W 122°56'0 0.0
2018-Jun-16 12:29N 46°05' W 122°56'0 0.0
2018-Jun-16 11:53N 46°05' W 122°56'0 0.0
2018-Jun-16 11:20N 46°05' W 122°56'0 0.0
2018-Jun-16 10:59N 46°05' W 122°56'0 0.0
2018-Jun-16 10:29N 46°05' W 122°56'0 0.0
2018-Jun-16 09:59N 46°05' W 122°56'0 0.0
2018-Jun-16 09:29N 46°05' W 122°56'0 0.0
2018-Jun-16 08:59N 46°05' W 122°56'0 0.0
2018-Jun-16 08:26N 46°05' W 122°56'0 0.0
2018-Jun-16 07:59N 46°05' W 122°56'0 0.0
2018-Jun-16 07:26N 46°05' W 122°56'0 0.0
2018-Jun-16 06:59N 46°05' W 122°56'0 0.0
2018-Jun-16 06:26N 46°05' W 122°56'0 0.0
2018-Jun-16 05:59N 46°05' W 122°56'0 0.0
2018-Jun-16 05:29N 46°05' W 122°56'0 0.0
2018-Jun-16 04:56N 46°05' W 122°56'0 0.0
2018-Jun-16 04:26N 46°05' W 122°56'0 0.0
2018-Jun-16 03:53N 46°05' W 122°56'0 0.0
2018-Jun-16 03:29N 46°05' W 122°56'0 0.0
2018-Jun-16 02:53N 46°05' W 122°56'0 0.0
2018-Jun-16 02:23N 46°05' W 122°56'0 0.0
2018-Jun-16 01:50N 46°05' W 122°56'1 1.7
2018-Jun-16 01:31N 46°06' W 122°56'0 0.1
2018-Jun-16 01:00N 46°06' W 122°56'0 0.4
2018-Jun-16 00:30N 46°06' W 122°56'0 0.8
2018-Jun-15 23:59N 46°05' W 122°56'0 0.0
2018-Jun-15 23:23N 46°05' W 122°56'0 0.0
2018-Jun-15 22:59N 46°05' W 122°56'0 0.0
2018-Jun-15 22:29N 46°05' W 122°56'2 3.5
2018-Jun-15 22:00N 46°07' W 122°58'0 0.1
2018-Jun-15 21:30N 46°06' W 122°58'2 3.2
2018-Jun-15 21:00N 46°05' W 122°56'0 0.0
2018-Jun-15 20:30N 46°05' W 122°56'0 0.0
2018-Jun-15 20:00N 46°05' W 122°56'0 0.0
2018-Jun-15 19:30N 46°05' W 122°56'0 0.0
2018-Jun-15 19:00N 46°05' W 122°56'0 0.0
2018-Jun-15 18:30N 46°05' W 122°56'0 0.0
2018-Jun-15 18:00N 46°05' W 122°56'0 0.0
2018-Jun-15 17:30N 46°05' W 122°56'0 0.0
2018-Jun-15 17:00N 46°05' W 122°56'0 0.0
2018-Jun-15 16:30N 46°05' W 122°56'0 0.0
2018-Jun-15 15:51N 46°05' W 122°56'0 0.0
2018-Jun-15 15:30N 46°05' W 122°56'4 8.5
2018-Jun-15 15:00N 46°02' W 122°53'3 6.7
2018-Jun-15 14:30N 45°59' W 122°50'0 0.0
2018-Jun-15 14:00N 45°59' W 122°50'0 0.2
2018-Jun-15 13:30N 45°59' W 122°50'0 0.0
2018-Jun-15 13:00N 45°59' W 122°50'0 0.2
2018-Jun-15 12:30N 45°59' W 122°50'2 2.7
2018-Jun-15 11:49N 46°01' W 122°52'3 8.3
2018-Jun-15 11:30N 46°03' W 122°53'3 6.3
2018-Jun-15 11:00N 46°05' W 122°56'0 0.0
2018-Jun-15 10:27N 46°05' W 122°56'0 0.0
2018-Jun-15 09:36N 46°05' W 122°56'0 0.0
2018-Jun-15 09:30N 46°05' W 122°56'0 0.0
2018-Jun-15 08:54N 46°05' W 122°56'0 0.0
2018-Jun-15 08:30N 46°05' W 122°56'0 0.0
2018-Jun-15 08:00N 46°05' W 122°56'0 0.0
2018-Jun-15 06:57N 46°05' W 122°56'0 0.0
2018-Jun-15 06:30N 46°05' W 122°56'0 0.0
2018-Jun-15 05:57N 46°05' W 122°56'0 0.0
2018-Jun-15 05:21N 46°05' W 122°56'0 0.0
2018-Jun-15 04:54N 46°05' W 122°56'0 0.0
2018-Jun-15 04:27N 46°05' W 122°56'0 0.0
2018-Jun-15 03:57N 46°05' W 122°56'0 0.0
2018-Jun-15 03:03N 46°05' W 122°56'0 0.0
2018-Jun-15 02:54N 46°05' W 122°56'0 0.0
2018-Jun-15 02:30N 46°05' W 122°56'0 0.0
2018-Jun-15 01:57N 46°05' W 122°56'0 0.0
2018-Jun-15 01:18N 46°05' W 122°56'0 0.0
2018-Jun-15 00:57N 46°05' W 122°56'0 0.0
2018-Jun-15 00:30N 46°05' W 122°56'0 0.0
2018-Jun-15 00:00N 46°05' W 122°56'0 0.0
2018-Jun-14 23:27N 46°05' W 122°56'0 0.0
2018-Jun-14 23:00N 46°05' W 122°56'0 0.0
2018-Jun-14 22:30N 46°05' W 122°56'0 0.0
2018-Jun-14 22:00N 46°05' W 122°56'0 0.0
2018-Jun-14 21:27N 46°05' W 122°56'0 0.0
2018-Jun-14 21:00N 46°05' W 122°56'2 3.1
2018-Jun-14 20:30N 46°06' W 122°58'0 0.5
2018-Jun-14 19:54N 46°07' W 122°58'2 3.2
2018-Jun-14 19:21N 46°05' W 122°56'0 0.0
2018-Jun-14 18:57N 46°05' W 122°56'0 0.0
2018-Jun-14 18:27N 46°05' W 122°56'0 0.0
2018-Jun-14 17:54N 46°05' W 122°56'0 0.0
2018-Jun-14 17:30N 46°05' W 122°56'0 0.0
2018-Jun-14 17:00N 46°05' W 122°56'0 0.0
2018-Jun-14 16:30N 46°05' W 122°56'0 0.0
2018-Jun-14 15:57N 46°05' W 122°56'0 0.0
2018-Jun-14 15:15N 46°05' W 122°56'0 0.0
2018-Jun-14 14:57N 46°05' W 122°56'0 0.0
2018-Jun-14 14:18N 46°05' W 122°56'0 0.0
2018-Jun-14 14:00N 46°05' W 122°56'0 0.0
2018-Jun-14 13:24N 46°05' W 122°56'0 0.0
2018-Jun-14 12:54N 46°05' W 122°56'0 0.0
2018-Jun-14 12:30N 46°05' W 122°56'0 0.0
2018-Jun-14 12:00N 46°05' W 122°56'0 0.0
2018-Jun-14 11:30N 46°05' W 122°56'0 0.0
2018-Jun-14 11:00N 46°05' W 122°56'0 0.0
2018-Jun-14 10:30N 46°05' W 122°56'0 0.0
2018-Jun-14 09:51N 46°05' W 122°56'0 0.0
2018-Jun-14 09:27N 46°05' W 122°56'0 0.0
2018-Jun-14 09:00N 46°05' W 122°56'0 0.0
2018-Jun-14 08:30N 46°05' W 122°56'0 0.0
2018-Jun-14 08:00N 46°05' W 122°56'1 2.9
2018-Jun-14 07:30N 46°05' W 122°54'2 4.4
2018-Jun-14 06:59N 46°03' W 122°53'0 0.0
2018-Jun-14 06:30N 46°03' W 122°53'0 0.0
2018-Jun-14 06:00N 46°03' W 122°53'0 0.0
2018-Jun-14 05:23N 46°03' W 122°53'0 0.4
2018-Jun-14 05:00N 46°03' W 122°53'1 1.9
2018-Jun-14 04:27N 46°02' W 122°52'0 0.1
2018-Jun-14 04:00N 46°02' W 122°52'6 8.6
2018-Jun-14 03:19N 45°56' W 122°48'310.5
2018-Jun-14 03:00N 45°53' W 122°48'510.1
2018-Jun-14 02:30N 45°48' W 122°47'510.0
2018-Jun-14 02:01N 45°43' W 122°46'5 8.6
2018-Jun-14 01:28N 45°39' W 122°45'0 0.1
2018-Jun-14 00:58N 45°39' W 122°45'0 0.0
2018-Jun-14 00:28N 45°39' W 122°45'0 0.0
2018-Jun-13 23:58N 45°39' W 122°45'0 0.0
2018-Jun-13 23:28N 45°39' W 122°45'0 0.0
2018-Jun-13 22:55N 45°39' W 122°45'0 0.1
2018-Jun-13 22:22N 45°39' W 122°45'0 0.1
2018-Jun-13 21:58N 45°39' W 122°45'0 0.0
2018-Jun-13 21:25N 45°39' W 122°45'0 0.0
2018-Jun-13 20:58N 45°39' W 122°45'0 0.0
2018-Jun-13 20:22N 45°39' W 122°45'0 0.0
2018-Jun-13 19:58N 45°39' W 122°45'0 0.0
2018-Jun-13 19:28N 45°39' W 122°45'0 0.5
2018-Jun-13 19:00N 45°39' W 122°45'0 0.1
2018-Jun-13 18:30N 45°39' W 122°45'1 1.7
2018-Jun-13 18:00N 45°38' W 122°44'0 0.1
2018-Jun-13 17:31N 45°38' W 122°44'1 1.6
2018-Jun-13 16:50N 45°39' W 122°45'0 0.0
2018-Jun-13 16:29N 45°39' W 122°45'0 0.0
2018-Jun-13 15:59N 45°39' W 122°45'0 0.0
2018-Jun-13 15:29N 45°39' W 122°45'0 0.0
2018-Jun-13 14:56N 45°39' W 122°45'0 0.0
2018-Jun-13 14:29N 45°39' W 122°45'0 0.0
2018-Jun-13 13:47N 45°39' W 122°45'0 0.0
2018-Jun-13 13:29N 45°39' W 122°45'0 0.0
2018-Jun-13 13:00N 45°39' W 122°45'2 4.3
2018-Jun-13 12:30N 45°38' W 122°42'1 1.8
2018-Jun-13 12:01N 45°38' W 122°43'1 2.5
2018-Jun-13 11:30N 45°39' W 122°45'0 0.1
2018-Jun-13 10:59N 45°39' W 122°45'0 0.0
2018-Jun-13 10:26N 45°39' W 122°45'0 0.0
2018-Jun-13 09:59N 45°39' W 122°45'0 0.1
2018-Jun-13 09:29N 45°39' W 122°45'0 0.1
2018-Jun-13 08:56N 45°39' W 122°45'0 0.0
2018-Jun-13 08:29N 45°39' W 122°45'0 0.0
2018-Jun-13 07:56N 45°39' W 122°45'1 1.7
2018-Jun-13 07:31N 45°39' W 122°46'3 6.4
2018-Jun-13 06:59N 45°36' W 122°47'3 4.1
2018-Jun-13 06:14N 45°34' W 122°44'0 0.0
2018-Jun-13 06:00N 45°34' W 122°44'0 0.0
2018-Jun-13 05:29N 45°34' W 122°44'0 0.0
2018-Jun-13 05:00N 45°34' W 122°44'0 0.0
2018-Jun-13 04:30N 45°34' W 122°44'0 0.0
2018-Jun-13 03:47N 45°34' W 122°44'0 0.0
2018-Jun-13 03:27N 45°34' W 122°44'0 0.0
2018-Jun-13 03:00N 45°34' W 122°44'0 0.3
2018-Jun-13 02:19N 45°34' W 122°44'3 8.7
2018-Jun-13 02:00N 45°36' W 122°46'3 6.8
2018-Jun-13 01:30N 45°39' W 122°46'5 9.0
2018-Jun-13 01:00N 45°44' W 122°46'510.4
2018-Jun-13 00:30N 45°49' W 122°48'5 9.3
2018-Jun-13 00:00N 45°53' W 122°48'4 8.9
2018-Jun-12 23:30N 45°58' W 122°49'5 8.8
2018-Jun-12 22:59N 46°02' W 122°52'4 8.3
2018-Jun-12 22:30N 46°05' W 122°55'1 1.6
2018-Jun-12 21:58N 46°05' W 122°56'1 2.5
2018-Jun-12 21:26N 46°06' W 122°57'0 0.0
2018-Jun-12 21:00N 46°06' W 122°57'0 0.5
2018-Jun-12 20:31N 46°06' W 122°58'1 1.1
2018-Jun-12 20:00N 46°06' W 122°57'1 1.6
2018-Jun-12 19:31N 46°06' W 122°56'0 0.2
2018-Jun-12 18:58N 46°05' W 122°56'0 0.0
2018-Jun-12 18:28N 46°05' W 122°56'0 0.0
2018-Jun-12 17:58N 46°05' W 122°56'1 1.6
2018-Jun-12 17:20N 46°05' W 122°55'411.3
2018-Jun-12 17:00N 46°02' W 122°52'3 6.0
2018-Jun-12 16:30N 45°59' W 122°50'4 8.3
2018-Jun-12 16:00N 46°03' W 122°53'3 6.8
2018-Jun-12 15:30N 46°05' W 122°56'0 0.1
2018-Jun-12 14:57N 46°05' W 122°56'0 0.0
2018-Jun-12 14:30N 46°05' W 122°56'0 0.0
2018-Jun-12 14:00N 46°05' W 122°56'0 0.0
2018-Jun-12 13:27N 46°05' W 122°56'0 0.0
2018-Jun-12 12:57N 46°05' W 122°56'0 0.0
2018-Jun-12 12:30N 46°05' W 122°56'0 0.0
2018-Jun-12 11:59N 46°05' W 122°56'0 0.0
2018-Jun-12 11:08N 46°05' W 122°56'0 0.0
2018-Jun-12 11:00N 46°05' W 122°56'0 0.0
2018-Jun-12 10:29N 46°05' W 122°56'0 0.0
2018-Jun-12 09:57N 46°05' W 122°56'0 0.0
2018-Jun-12 09:27N 46°05' W 122°56'0 0.0
2018-Jun-12 08:59N 46°05' W 122°56'0 0.0
2018-Jun-12 08:30N 46°05' W 122°56'0 0.0
2018-Jun-12 07:59N 46°05' W 122°56'0 0.0
2018-Jun-12 07:30N 46°05' W 122°56'0 0.0
2018-Jun-12 06:48N 46°05' W 122°56'0 0.0
2018-Jun-12 06:23N 46°05' W 122°56'0 0.0
2018-Jun-12 06:00N 46°05' W 122°56'1 1.4
2018-Jun-12 05:31N 46°06' W 122°56'0 0.4
2018-Jun-12 05:00N 46°06' W 122°57'1 1.9
2018-Jun-12 04:30N 46°06' W 122°58'1 1.6
2018-Jun-12 04:01N 46°06' W 122°57'1 1.3
2018-Jun-12 03:14N 46°05' W 122°56'0 0.0
2018-Jun-12 02:59N 46°05' W 122°56'0 0.0
2018-Jun-12 02:14N 46°05' W 122°56'0 0.0
2018-Jun-12 01:53N 46°05' W 122°56'1 1.8
2018-Jun-12 01:30N 46°05' W 122°55'3 6.4
2018-Jun-12 01:00N 46°02' W 122°53'2 3.1
2018-Jun-12 00:30N 46°04' W 122°53'1 2.7
2018-Jun-12 00:00N 46°03' W 122°53'0 0.0
2018-Jun-11 23:30N 46°03' W 122°53'2 4.3
2018-Jun-11 23:00N 46°05' W 122°54'4 7.0
2018-Jun-11 22:30N 46°07' W 122°58'1 1.1
2018-Jun-11 21:52N 46°07' W 122°59'2 5.3
2018-Jun-11 21:30N 46°06' W 122°57'1 0.9
2018-Jun-11 20:50N 46°05' W 122°56'0 0.0
2018-Jun-11 20:23N 46°05' W 122°56'0 0.0
2018-Jun-11 19:59N 46°05' W 122°56'0 0.0
2018-Jun-11 19:29N 46°05' W 122°56'0 0.0
2018-Jun-11 18:50N 46°05' W 122°56'0 0.0
2018-Jun-11 18:26N 46°05' W 122°56'0 0.0
2018-Jun-11 17:41N 46°05' W 122°56'0 0.0
2018-Jun-11 17:29N 46°05' W 122°56'0 0.0
2018-Jun-11 16:56N 46°05' W 122°56'0 0.0
2018-Jun-11 16:29N 46°05' W 122°56'0 0.0
2018-Jun-11 15:38N 46°05' W 122°56'0 0.0
2018-Jun-11 15:17N 46°05' W 122°56'0 0.0
2018-Jun-11 14:56N 46°05' W 122°56'0 0.0
2018-Jun-11 14:20N 46°05' W 122°56'0 0.0
2018-Jun-11 13:53N 46°05' W 122°56'0 0.0
2018-Jun-11 13:26N 46°05' W 122°56'0 0.0
2018-Jun-11 12:59N 46°05' W 122°56'0 0.0
2018-Jun-11 12:29N 46°05' W 122°56'0 0.4
2018-Jun-11 11:56N 46°06' W 122°56'1 3.1
2018-Jun-11 11:30N 46°06' W 122°58'0 0.5
2018-Jun-11 11:00N 46°07' W 122°58'2 1.9
2018-Jun-11 10:05N 46°05' W 122°56'0 0.0
2018-Jun-11 10:01N 46°05' W 122°56'0 0.0
2018-Jun-11 09:20N 46°05' W 122°56'0 0.0
2018-Jun-11 09:00N 46°05' W 122°56'0 0.0
2018-Jun-11 08:30N 46°05' W 122°56'0 0.0
2018-Jun-11 08:01N 46°05' W 122°56'0 0.0
2018-Jun-11 07:30N 46°05' W 122°56'0 0.0
2018-Jun-11 06:59N 46°05' W 122°56'0 0.0
2018-Jun-11 06:30N 46°05' W 122°56'0 0.0
2018-Jun-11 06:01N 46°05' W 122°56'1 0.8
2018-Jun-11 05:23N 46°06' W 122°56'0 0.0
2018-Jun-11 05:01N 46°06' W 122°56'1 1.4
2018-Jun-11 04:17N 46°06' W 122°58'0 0.1
2018-Jun-11 04:00N 46°06' W 122°58'1 2.1
2018-Jun-11 03:30N 46°06' W 122°56'0 0.0
2018-Jun-11 03:00N 46°06' W 122°56'0 0.0
2018-Jun-11 02:30N 46°06' W 122°56'1 1.1
2018-Jun-11 02:01N 46°05' W 122°56'0 0.0
2018-Jun-11 00:55N 46°05' W 122°56'0 0.0
2018-Jun-11 00:13N 46°05' W 122°56'0 0.0
2018-Jun-10 23:58N 46°05' W 122°56'0 0.0
2018-Jun-10 23:25N 46°05' W 122°56'0 0.0
2018-Jun-10 22:49N 46°05' W 122°56'0 0.0
2018-Jun-10 22:22N 46°05' W 122°56'1 3.6
2018-Jun-10 22:00N 46°06' W 122°57'0 0.1
2018-Jun-10 21:23N 46°06' W 122°57'1 3.9
2018-Jun-10 21:00N 46°06' W 122°55'0 0.4
2018-Jun-10 20:30N 46°05' W 122°55'0 0.8
2018-Jun-10 20:00N 46°05' W 122°56'0 0.0
2018-Jun-10 19:30N 46°05' W 122°56'0 0.0
2018-Jun-10 19:00N 46°05' W 122°56'0 0.0
2018-Jun-10 18:30N 46°05' W 122°56'0 0.0
2018-Jun-10 18:00N 46°05' W 122°56'0 0.0
2018-Jun-10 17:30N 46°05' W 122°56'0 0.0
2018-Jun-10 16:57N 46°05' W 122°56'0 0.0
2018-Jun-10 16:30N 46°05' W 122°56'0 0.0
2018-Jun-10 15:40N 46°05' W 122°56'0 0.0
2018-Jun-10 15:30N 46°05' W 122°56'0 0.0
2018-Jun-10 15:00N 46°05' W 122°56'0 0.0
2018-Jun-10 14:30N 46°05' W 122°56'0 0.0
2018-Jun-10 13:30N 46°05' W 122°56'0 0.0
2018-Jun-10 13:00N 46°05' W 122°56'0 0.0
2018-Jun-10 12:30N 46°05' W 122°56'0 0.0
2018-Jun-10 12:00N 46°05' W 122°56'0 0.0
2018-Jun-10 11:30N 46°05' W 122°56'0 0.0
2018-Jun-10 11:00N 46°05' W 122°56'1 2.1
2018-Jun-10 10:30N 46°06' W 122°57'0 0.5
2018-Jun-10 10:00N 46°06' W 122°57'0 0.0
2018-Jun-10 09:30N 46°06' W 122°57'1 2.7
2018-Jun-10 09:00N 46°05' W 122°56'0 0.0
2018-Jun-10 08:30N 46°05' W 122°56'0 0.0
2018-Jun-10 08:00N 46°05' W 122°56'0 0.0
2018-Jun-10 07:15N 46°05' W 122°56'0 0.0
2018-Jun-10 06:59N 46°05' W 122°56'0 0.0
2018-Jun-10 06:30N 46°05' W 122°56'0 0.0
2018-Jun-10 06:00N 46°05' W 122°56'0 0.0
2018-Jun-10 05:30N 46°05' W 122°56'0 0.0
2018-Jun-10 05:01N 46°05' W 122°56'0 0.0
2018-Jun-10 04:30N 46°05' W 122°56'0 0.0
2018-Jun-10 04:00N 46°05' W 122°56'0 0.0
2018-Jun-10 03:11N 46°05' W 122°56'0 0.0
2018-Jun-10 03:00N 46°05' W 122°56'0 0.0
2018-Jun-10 02:15N 46°05' W 122°56'0 0.0
2018-Jun-10 02:00N 46°05' W 122°56'1 1.8
2018-Jun-10 01:30N 46°05' W 122°55'7 6.6
2018-Jun-10 00:27N 45°59' W 122°50'0 0.0
2018-Jun-10 00:00N 45°59' W 122°50'1 2.3
2018-Jun-09 23:30N 45°58' W 122°49'4 8.5
2018-Jun-09 23:00N 46°02' W 122°52'2 4.0
2018-Jun-09 22:30N 46°04' W 122°53'0 0.0
2018-Jun-09 22:00N 46°04' W 122°53'0 0.0
2018-Jun-09 21:30N 46°04' W 122°53'0 0.1
2018-Jun-09 21:00N 46°03' W 122°53'0 0.0
2018-Jun-09 20:30N 46°03' W 122°53'0 0.0
2018-Jun-09 20:00N 46°04' W 122°53'4 7.9
2018-Jun-09 19:30N 45°60' W 122°51'1 1.5
2018-Jun-09 18:50N 45°59' W 122°50'0 0.3
2018-Jun-09 18:30N 45°59' W 122°50'0 0.2
2018-Jun-09 18:00N 45°59' W 122°50'2 3.1
2018-Jun-09 17:30N 46°00' W 122°51'5 9.9
2018-Jun-09 17:00N 46°05' W 122°54'1 2.8
2018-Jun-09 16:30N 46°05' W 122°56'1 2.7
2018-Jun-09 16:00N 46°06' W 122°58'1 0.9
2018-Jun-09 15:00N 46°06' W 122°56'0 0.0
2018-Jun-09 14:30N 46°06' W 122°56'1 0.7
2018-Jun-09 13:47N 46°05' W 122°56'0 0.0
2018-Jun-09 13:27N 46°05' W 122°56'0 0.0
2018-Jun-09 13:00N 46°05' W 122°56'0 0.0
2018-Jun-09 12:30N 46°05' W 122°56'0 0.0
2018-Jun-09 11:57N 46°05' W 122°56'0 0.0
2018-Jun-09 11:30N 46°05' W 122°56'0 0.0
2018-Jun-09 11:00N 46°05' W 122°56'0 0.0
2018-Jun-09 10:30N 46°05' W 122°56'0 0.0
2018-Jun-09 10:00N 46°05' W 122°56'0 0.0
2018-Jun-09 09:30N 46°05' W 122°56'0 0.0
2018-Jun-09 09:00N 46°05' W 122°56'0 0.0
2018-Jun-09 08:30N 46°05' W 122°56'0 0.0
2018-Jun-09 07:57N 46°05' W 122°56'0 0.0
2018-Jun-09 07:12N 46°05' W 122°56'0 0.0
2018-Jun-09 06:57N 46°05' W 122°56'0 0.0
2018-Jun-09 06:30N 46°05' W 122°56'  
Track history (hours):
 
Tides and Currents Weather Stations Pressure Air Temp Water Temp Dewpoint Dewpoint Depression Visibility Wind Speed Wind Dir Waves Ship Positions

Vancouver

Owner: Shaver Transportation Company, Portland, OR. More information available from US FCC via Universal Licensing System and Coast Guard Vessel Documentation Center.

Last reported at 2018-Jun-19 06:28 UTC. Time now 2018-Jun-19 06:51 UTC.
Position N 46°05' W 122°56'.

Length 23 m.

Type: Tug. MMSI: 367513220.

Date/timePositionNaut miles runAvg speedWind from/ knotsBaromVisibWave heightAir tempDewpointWater temp
2018-Jun-19 06:28N 46°05' W 122°56'0 0.0
2018-Jun-19 05:58N 46°05' W 122°56'0 0.0
2018-Jun-19 05:25N 46°05' W 122°56'0 0.0
2018-Jun-19 04:58N 46°05' W 122°56'0 0.0
2018-Jun-19 04:25N 46°05' W 122°56'0 0.0
2018-Jun-19 03:58N 46°05' W 122°56'0 0.0
2018-Jun-19 03:22N 46°05' W 122°56'0 0.0
2018-Jun-19 02:55N 46°05' W 122°56'0 0.0
2018-Jun-19 02:28N 46°05' W 122°56'0 0.0
2018-Jun-19 01:52N 46°05' W 122°56'0 0.0
2018-Jun-19 01:28N 46°05' W 122°56'0 0.0
2018-Jun-19 00:58N 46°05' W 122°56'0 0.0
2018-Jun-19 00:28N 46°05' W 122°56'0 0.0
2018-Jun-18 23:58N 46°05' W 122°56'0 0.0
2018-Jun-18 23:28N 46°05' W 122°56'0 0.0
2018-Jun-18 22:58N 46°05' W 122°56'0 0.0
2018-Jun-18 22:28N 46°05' W 122°56'0 0.0
2018-Jun-18 21:58N 46°05' W 122°56'0 0.0
2018-Jun-18 21:25N 46°05' W 122°56'0 0.0
2018-Jun-18 20:58N 46°05' W 122°56'0 0.0
2018-Jun-18 20:19N 46°05' W 122°56'0 0.0
2018-Jun-18 19:46N 46°05' W 122°56'2 6.1
2018-Jun-18 19:30N 46°05' W 122°54'612.4
2018-Jun-18 19:00N 45°59' W 122°50'1 1.2
2018-Jun-18 18:30N 45°59' W 122°51'2 3.4
2018-Jun-18 17:46N 46°02' W 122°52'2 4.6
2018-Jun-18 17:21N 46°03' W 122°53'2 6.6
2018-Jun-18 17:00N 46°05' W 122°55'1 1.1
2018-Jun-18 16:30N 46°05' W 122°56'0 0.0
2018-Jun-18 16:00N 46°05' W 122°56'0 0.0
2018-Jun-18 15:30N 46°05' W 122°56'0 0.0
2018-Jun-18 15:00N 46°05' W 122°56'0 0.0
2018-Jun-18 14:30N 46°05' W 122°56'0 0.0
2018-Jun-18 13:51N 46°05' W 122°56'0 0.0
2018-Jun-18 13:21N 46°05' W 122°56'0 0.0
2018-Jun-18 13:00N 46°05' W 122°56'0 0.0
2018-Jun-18 12:30N 46°05' W 122°56'0 0.0
2018-Jun-18 12:00N 46°05' W 122°56'0 0.0
2018-Jun-18 11:30N 46°05' W 122°56'0 0.0
2018-Jun-18 11:00N 46°05' W 122°56'0 0.0
2018-Jun-18 10:27N 46°05' W 122°56'0 0.0
2018-Jun-18 09:54N 46°05' W 122°56'0 0.0
2018-Jun-18 09:18N 46°05' W 122°56'0 0.0
2018-Jun-18 08:57N 46°05' W 122°56'0 0.0
2018-Jun-18 08:30N 46°05' W 122°56'0 0.0
2018-Jun-18 07:57N 46°05' W 122°56'0 0.0
2018-Jun-18 07:30N 46°05' W 122°56'0 0.0
2018-Jun-18 06:57N 46°05' W 122°56'0 0.0
2018-Jun-18 06:18N 46°05' W 122°56'0 0.0
2018-Jun-18 06:00N 46°05' W 122°56'0 0.0
2018-Jun-18 05:30N 46°05' W 122°56'0 0.0
2018-Jun-18 05:00N 46°05' W 122°56'0 0.0
2018-Jun-18 04:24N 46°05' W 122°56'0 0.0
2018-Jun-18 03:57N 46°05' W 122°56'0 0.0
2018-Jun-18 03:30N 46°05' W 122°56'0 0.0
2018-Jun-18 02:57N 46°05' W 122°56'0 0.0
2018-Jun-18 02:03N 46°05' W 122°56'0 0.0
2018-Jun-18 01:39N 46°05' W 122°56'0 0.0
2018-Jun-18 01:27N 46°05' W 122°56'0 0.0
2018-Jun-18 01:00N 46°05' W 122°56'0 0.0
2018-Jun-18 00:21N 46°05' W 122°56'0 0.0
2018-Jun-18 00:00N 46°05' W 122°56'0 0.0
2018-Jun-17 23:30N 46°05' W 122°56'0 0.0
2018-Jun-17 22:42N 46°05' W 122°56'0 0.0
2018-Jun-17 22:30N 46°05' W 122°56'1 1.8
2018-Jun-17 22:00N 46°06' W 122°57'1 0.5
2018-Jun-17 20:14N 46°05' W 122°56'0 0.0
2018-Jun-17 19:59N 46°05' W 122°56'0 0.0
2018-Jun-17 19:26N 46°05' W 122°56'0 0.0
2018-Jun-17 18:59N 46°05' W 122°56'0 0.0
2018-Jun-17 18:29N 46°05' W 122°56'0 0.0
2018-Jun-17 17:59N 46°05' W 122°56'0 0.0
2018-Jun-17 17:23N 46°05' W 122°56'0 0.0
2018-Jun-17 16:59N 46°05' W 122°56'0 0.0
2018-Jun-17 16:23N 46°05' W 122°56'0 0.0
2018-Jun-17 15:50N 46°05' W 122°56'0 0.0
2018-Jun-17 15:20N 46°05' W 122°56'0 0.0
2018-Jun-17 14:59N 46°05' W 122°56'0 0.0
2018-Jun-17 14:26N 46°05' W 122°56'0 0.0
2018-Jun-17 13:53N 46°05' W 122°56'0 0.0
2018-Jun-17 13:23N 46°05' W 122°56'0 0.0
2018-Jun-17 12:59N 46°05' W 122°56'0 0.0
2018-Jun-17 12:20N 46°05' W 122°56'0 0.0
2018-Jun-17 11:56N 46°05' W 122°56'0 0.0
2018-Jun-17 11:20N 46°05' W 122°56'0 0.0
2018-Jun-17 10:56N 46°05' W 122°56'0 0.0
2018-Jun-17 10:29N 46°05' W 122°56'0 0.0
2018-Jun-17 09:38N 46°05' W 122°56'0 0.0
2018-Jun-17 09:29N 46°05' W 122°56'0 0.0
2018-Jun-17 08:32N 46°05' W 122°56'0 0.0
2018-Jun-17 08:29N 46°05' W 122°56'0 0.0
2018-Jun-17 07:56N 46°05' W 122°56'0 0.0
2018-Jun-17 07:29N 46°05' W 122°56'0 0.0
2018-Jun-17 06:56N 46°05' W 122°56'0 0.0
2018-Jun-17 06:23N 46°05' W 122°56'0 0.0
2018-Jun-17 05:53N 46°05' W 122°56'0 0.0
2018-Jun-17 05:29N 46°05' W 122°56'0 0.0
2018-Jun-17 04:53N 46°05' W 122°56'0 0.0
2018-Jun-17 04:23N 46°05' W 122°56'0 0.0
2018-Jun-17 03:56N 46°05' W 122°56'0 0.0
2018-Jun-17 03:29N 46°05' W 122°56'0 0.0
2018-Jun-17 02:53N 46°05' W 122°56'0 0.0
2018-Jun-17 02:23N 46°05' W 122°56'0 0.0
2018-Jun-17 01:38N 46°05' W 122°56'0 0.0
2018-Jun-17 01:23N 46°05' W 122°56'0 0.0
2018-Jun-17 00:50N 46°05' W 122°56'0 0.0
2018-Jun-17 00:23N 46°05' W 122°56'0 0.0
2018-Jun-16 23:56N 46°05' W 122°56'0 0.0
2018-Jun-16 23:29N 46°05' W 122°56'0 0.0
2018-Jun-16 22:50N 46°05' W 122°56'0 0.0
2018-Jun-16 22:20N 46°05' W 122°56'0 0.0
2018-Jun-16 21:59N 46°05' W 122°56'0 0.0
2018-Jun-16 21:26N 46°05' W 122°56'0 0.0
2018-Jun-16 20:59N 46°05' W 122°56'0 0.0
2018-Jun-16 20:26N 46°05' W 122°56'0 0.0
2018-Jun-16 19:59N 46°05' W 122°56'0 0.0
2018-Jun-16 19:23N 46°05' W 122°56'0 0.0
2018-Jun-16 18:56N 46°05' W 122°56'0 0.0
2018-Jun-16 18:26N 46°05' W 122°56'0 0.0
2018-Jun-16 17:59N 46°05' W 122°56'0 0.0
2018-Jun-16 17:26N 46°05' W 122°56'0 0.0
2018-Jun-16 16:50N 46°05' W 122°56'0 0.0
2018-Jun-16 16:29N 46°05' W 122°56'0 0.0
2018-Jun-16 15:59N 46°05' W 122°56'0 0.0
2018-Jun-16 15:29N 46°05' W 122°56'0 0.0
2018-Jun-16 14:59N 46°05' W 122°56'0 0.0
2018-Jun-16 14:29N 46°05' W 122°56'0 0.0
2018-Jun-16 13:59N 46°05' W 122°56'0 0.0
2018-Jun-16 13:29N 46°05' W 122°56'0 0.0
2018-Jun-16 12:59N 46°05' W 122°56'0 0.0
2018-Jun-16 12:29N 46°05' W 122°56'0 0.0
2018-Jun-16 11:53N 46°05' W 122°56'0 0.0
2018-Jun-16 11:20N 46°05' W 122°56'0 0.0
2018-Jun-16 10:59N 46°05' W 122°56'0 0.0
2018-Jun-16 10:29N 46°05' W 122°56'0 0.0
2018-Jun-16 09:59N 46°05' W 122°56'0 0.0
2018-Jun-16 09:29N 46°05' W 122°56'0 0.0
2018-Jun-16 08:59N 46°05' W 122°56'0 0.0
2018-Jun-16 08:26N 46°05' W 122°56'0 0.0
2018-Jun-16 07:59N 46°05' W 122°56'0 0.0
2018-Jun-16 07:26N 46°05' W 122°56'0 0.0
2018-Jun-16 06:59N 46°05' W 122°56'0 0.0
2018-Jun-16 06:26N 46°05' W 122°56'0 0.0
2018-Jun-16 05:59N 46°05' W 122°56'0 0.0
2018-Jun-16 05:29N 46°05' W 122°56'0 0.0
2018-Jun-16 04:56N 46°05' W 122°56'0 0.0
2018-Jun-16 04:26N 46°05' W 122°56'0 0.0
2018-Jun-16 03:53N 46°05' W 122°56'0 0.0
2018-Jun-16 03:29N 46°05' W 122°56'0 0.0
2018-Jun-16 02:53N 46°05' W 122°56'0 0.0
2018-Jun-16 02:23N 46°05' W 122°56'0 0.0
2018-Jun-16 01:50N 46°05' W 122°56'1 1.7
2018-Jun-16 01:31N 46°06' W 122°56'0 0.1
2018-Jun-16 01:00N 46°06' W 122°56'0 0.4
2018-Jun-16 00:30N 46°06' W 122°56'0 0.8
2018-Jun-15 23:59N 46°05' W 122°56'0 0.0
2018-Jun-15 23:23N 46°05' W 122°56'0 0.0
2018-Jun-15 22:59N 46°05' W 122°56'0 0.0
2018-Jun-15 22:29N 46°05' W 122°56'2 3.5
2018-Jun-15 22:00N 46°07' W 122°58'0 0.1
2018-Jun-15 21:30N 46°06' W 122°58'2 3.2
2018-Jun-15 21:00N 46°05' W 122°56'0 0.0
2018-Jun-15 20:30N 46°05' W 122°56'0 0.0
2018-Jun-15 20:00N 46°05' W 122°56'0 0.0
2018-Jun-15 19:30N 46°05' W 122°56'0 0.0
2018-Jun-15 19:00N 46°05' W 122°56'0 0.0
2018-Jun-15 18:30N 46°05' W 122°56'0 0.0
2018-Jun-15 18:00N 46°05' W 122°56'0 0.0
2018-Jun-15 17:30N 46°05' W 122°56'0 0.0
2018-Jun-15 17:00N 46°05' W 122°56'0 0.0
2018-Jun-15 16:30N 46°05' W 122°56'0 0.0
2018-Jun-15 15:51N 46°05' W 122°56'0 0.0
2018-Jun-15 15:30N 46°05' W 122°56'4 8.5
2018-Jun-15 15:00N 46°02' W 122°53'3 6.7
2018-Jun-15 14:30N 45°59' W 122°50'0 0.0
2018-Jun-15 14:00N 45°59' W 122°50'0 0.2
2018-Jun-15 13:30N 45°59' W 122°50'0 0.0
2018-Jun-15 13:00N 45°59' W 122°50'0 0.2
2018-Jun-15 12:30N 45°59' W 122°50'2 2.7
2018-Jun-15 11:49N 46°01' W 122°52'3 8.3
2018-Jun-15 11:30N 46°03' W 122°53'3 6.3
2018-Jun-15 11:00N 46°05' W 122°56'0 0.0
2018-Jun-15 10:27N 46°05' W 122°56'0 0.0
2018-Jun-15 09:36N 46°05' W 122°56'0 0.0
2018-Jun-15 09:30N 46°05' W 122°56'0 0.0
2018-Jun-15 08:54N 46°05' W 122°56'0 0.0
2018-Jun-15 08:30N 46°05' W 122°56'0 0.0
2018-Jun-15 08:00N 46°05' W 122°56'0 0.0
2018-Jun-15 06:57N 46°05' W 122°56'0 0.0
2018-Jun-15 06:30N 46°05' W 122°56'0 0.0
2018-Jun-15 05:57N 46°05' W 122°56'0 0.0
2018-Jun-15 05:21N 46°05' W 122°56'0 0.0
2018-Jun-15 04:54N 46°05' W 122°56'0 0.0
2018-Jun-15 04:27N 46°05' W 122°56'0 0.0
2018-Jun-15 03:57N 46°05' W 122°56'0 0.0
2018-Jun-15 03:03N 46°05' W 122°56'0 0.0
2018-Jun-15 02:54N 46°05' W 122°56'0 0.0
2018-Jun-15 02:30N 46°05' W 122°56'0 0.0
2018-Jun-15 01:57N 46°05' W 122°56'0 0.0
2018-Jun-15 01:18N 46°05' W 122°56'0 0.0
2018-Jun-15 00:57N 46°05' W 122°56'0 0.0
2018-Jun-15 00:30N 46°05' W 122°56'0 0.0
2018-Jun-15 00:00N 46°05' W 122°56'0 0.0
2018-Jun-14 23:27N 46°05' W 122°56'0 0.0
2018-Jun-14 23:00N 46°05' W 122°56'0 0.0
2018-Jun-14 22:30N 46°05' W 122°56'0 0.0
2018-Jun-14 22:00N 46°05' W 122°56'0 0.0
2018-Jun-14 21:27N 46°05' W 122°56'0 0.0
2018-Jun-14 21:00N 46°05' W 122°56'2 3.1
2018-Jun-14 20:30N 46°06' W 122°58'0 0.5
2018-Jun-14 19:54N 46°07' W 122°58'2 3.2
2018-Jun-14 19:21N 46°05' W 122°56'0 0.0
2018-Jun-14 18:57N 46°05' W 122°56'0 0.0
2018-Jun-14 18:27N 46°05' W 122°56'0 0.0
2018-Jun-14 17:54N 46°05' W 122°56'0 0.0
2018-Jun-14 17:30N 46°05' W 122°56'0 0.0
2018-Jun-14 17:00N 46°05' W 122°56'0 0.0
2018-Jun-14 16:30N 46°05' W 122°56'0 0.0
2018-Jun-14 15:57N 46°05' W 122°56'0 0.0
2018-Jun-14 15:15N 46°05' W 122°56'0 0.0
2018-Jun-14 14:57N 46°05' W 122°56'0 0.0
2018-Jun-14 14:18N 46°05' W 122°56'0 0.0
2018-Jun-14 14:00N 46°05' W 122°56'0 0.0
2018-Jun-14 13:24N 46°05' W 122°56'0 0.0
2018-Jun-14 12:54N 46°05' W 122°56'0 0.0
2018-Jun-14 12:30N 46°05' W 122°56'0 0.0
2018-Jun-14 12:00N 46°05' W 122°56'0 0.0
2018-Jun-14 11:30N 46°05' W 122°56'0 0.0
2018-Jun-14 11:00N 46°05' W 122°56'0 0.0
2018-Jun-14 10:30N 46°05' W 122°56'0 0.0
2018-Jun-14 09:51N 46°05' W 122°56'0 0.0
2018-Jun-14 09:27N 46°05' W 122°56'0 0.0
2018-Jun-14 09:00N 46°05' W 122°56'0 0.0
2018-Jun-14 08:30N 46°05' W 122°56'0 0.0
2018-Jun-14 08:00N 46°05' W 122°56'1 2.9
2018-Jun-14 07:30N 46°05' W 122°54'2 4.4
2018-Jun-14 06:59N 46°03' W 122°53'0 0.0
2018-Jun-14 06:30N 46°03' W 122°53'0 0.0
2018-Jun-14 06:00N 46°03' W 122°53'0 0.0
2018-Jun-14 05:23N 46°03' W 122°53'0 0.4
2018-Jun-14 05:00N 46°03' W 122°53'1 1.9
2018-Jun-14 04:27N 46°02' W 122°52'0 0.1
2018-Jun-14 04:00N 46°02' W 122°52'6 8.6
2018-Jun-14 03:19N 45°56' W 122°48'310.5
2018-Jun-14 03:00N 45°53' W 122°48'510.1
2018-Jun-14 02:30N 45°48' W 122°47'510.0
2018-Jun-14 02:01N 45°43' W 122°46'5 8.6
2018-Jun-14 01:28N 45°39' W 122°45'0 0.1
2018-Jun-14 00:58N 45°39' W 122°45'0 0.0
2018-Jun-14 00:28N 45°39' W 122°45'0 0.0
2018-Jun-13 23:58N 45°39' W 122°45'0 0.0
2018-Jun-13 23:28N 45°39' W 122°45'0 0.0
2018-Jun-13 22:55N 45°39' W 122°45'0 0.1
2018-Jun-13 22:22N 45°39' W 122°45'0 0.1
2018-Jun-13 21:58N 45°39' W 122°45'0 0.0
2018-Jun-13 21:25N 45°39' W 122°45'0 0.0
2018-Jun-13 20:58N 45°39' W 122°45'0 0.0
2018-Jun-13 20:22N 45°39' W 122°45'0 0.0
2018-Jun-13 19:58N 45°39' W 122°45'0 0.0
2018-Jun-13 19:28N 45°39' W 122°45'0 0.5
2018-Jun-13 19:00N 45°39' W 122°45'0 0.1
2018-Jun-13 18:30N 45°39' W 122°45'1 1.7
2018-Jun-13 18:00N 45°38' W 122°44'0 0.1
2018-Jun-13 17:31N 45°38' W 122°44'1 1.6
2018-Jun-13 16:50N 45°39' W 122°45'0 0.0
2018-Jun-13 16:29N 45°39' W 122°45'0 0.0
2018-Jun-13 15:59N 45°39' W 122°45'0 0.0
2018-Jun-13 15:29N 45°39' W 122°45'0 0.0
2018-Jun-13 14:56N 45°39' W 122°45'0 0.0
2018-Jun-13 14:29N 45°39' W 122°45'0 0.0
2018-Jun-13 13:47N 45°39' W 122°45'0 0.0
2018-Jun-13 13:29N 45°39' W 122°45'0 0.0
2018-Jun-13 13:00N 45°39' W 122°45'2 4.3
2018-Jun-13 12:30N 45°38' W 122°42'1 1.8
2018-Jun-13 12:01N 45°38' W 122°43'1 2.5
2018-Jun-13 11:30N 45°39' W 122°45'0 0.1
2018-Jun-13 10:59N 45°39' W 122°45'0 0.0
2018-Jun-13 10:26N 45°39' W 122°45'0 0.0
2018-Jun-13 09:59N 45°39' W 122°45'0 0.1
2018-Jun-13 09:29N 45°39' W 122°45'0 0.1
2018-Jun-13 08:56N 45°39' W 122°45'0 0.0
2018-Jun-13 08:29N 45°39' W 122°45'0 0.0
2018-Jun-13 07:56N 45°39' W 122°45'1 1.7
2018-Jun-13 07:31N 45°39' W 122°46'3 6.4
2018-Jun-13 06:59N 45°36' W 122°47'3 4.1
2018-Jun-13 06:14N 45°34' W 122°44'0 0.0
2018-Jun-13 06:00N 45°34' W 122°44'0 0.0
2018-Jun-13 05:29N 45°34' W 122°44'0 0.0
2018-Jun-13 05:00N 45°34' W 122°44'0 0.0
2018-Jun-13 04:30N 45°34' W 122°44'0 0.0
2018-Jun-13 03:47N 45°34' W 122°44'0 0.0
2018-Jun-13 03:27N 45°34' W 122°44'0 0.0
2018-Jun-13 03:00N 45°34' W 122°44'0 0.3
2018-Jun-13 02:19N 45°34' W 122°44'3 8.7
2018-Jun-13 02:00N 45°36' W 122°46'3 6.8
2018-Jun-13 01:30N 45°39' W 122°46'5 9.0
2018-Jun-13 01:00N 45°44' W 122°46'510.4
2018-Jun-13 00:30N 45°49' W 122°48'5 9.3
2018-Jun-13 00:00N 45°53' W 122°48'4 8.9
2018-Jun-12 23:30N 45°58' W 122°49'5 8.8
2018-Jun-12 22:59N 46°02' W 122°52'4 8.3
2018-Jun-12 22:30N 46°05' W 122°55'1 1.6
2018-Jun-12 21:58N 46°05' W 122°56'1 2.5
2018-Jun-12 21:26N 46°06' W 122°57'0 0.0
2018-Jun-12 21:00N 46°06' W 122°57'0 0.5
2018-Jun-12 20:31N 46°06' W 122°58'1 1.1
2018-Jun-12 20:00N 46°06' W 122°57'1 1.6
2018-Jun-12 19:31N 46°06' W 122°56'0 0.2
2018-Jun-12 18:58N 46°05' W 122°56'0 0.0
2018-Jun-12 18:28N 46°05' W 122°56'0 0.0
2018-Jun-12 17:58N 46°05' W 122°56'1 1.6
2018-Jun-12 17:20N 46°05' W 122°55'411.3
2018-Jun-12 17:00N 46°02' W 122°52'3 6.0
2018-Jun-12 16:30N 45°59' W 122°50'4 8.3
2018-Jun-12 16:00N 46°03' W 122°53'3 6.8
2018-Jun-12 15:30N 46°05' W 122°56'0 0.1
2018-Jun-12 14:57N 46°05' W 122°56'0 0.0
2018-Jun-12 14:30N 46°05' W 122°56'0 0.0
2018-Jun-12 14:00N 46°05' W 122°56'0 0.0
2018-Jun-12 13:27N 46°05' W 122°56'0 0.0
2018-Jun-12 12:57N 46°05' W 122°56'0 0.0
2018-Jun-12 12:30N 46°05' W 122°56'0 0.0
2018-Jun-12 11:59N 46°05' W 122°56'0 0.0
2018-Jun-12 11:08N 46°05' W 122°56'0 0.0
2018-Jun-12 11:00N 46°05' W 122°56'0 0.0
2018-Jun-12 10:29N 46°05' W 122°56'0 0.0
2018-Jun-12 09:57N 46°05' W 122°56'0 0.0
2018-Jun-12 09:27N 46°05' W 122°56'0 0.0
2018-Jun-12 08:59N 46°05' W 122°56'0 0.0
2018-Jun-12 08:30N 46°05' W 122°56'0 0.0
2018-Jun-12 07:59N 46°05' W 122°56'0 0.0
2018-Jun-12 07:30N 46°05' W 122°56'0 0.0
2018-Jun-12 06:48N 46°05' W 122°56'0 0.0
2018-Jun-12 06:23N 46°05' W 122°56'0 0.0
2018-Jun-12 06:00N 46°05' W 122°56'1 1.4
2018-Jun-12 05:31N 46°06' W 122°56'0 0.4
2018-Jun-12 05:00N 46°06' W 122°57'1 1.9
2018-Jun-12 04:30N 46°06' W 122°58'1 1.6
2018-Jun-12 04:01N 46°06' W 122°57'1 1.3
2018-Jun-12 03:14N 46°05' W 122°56'0 0.0
2018-Jun-12 02:59N 46°05' W 122°56'0 0.0
2018-Jun-12 02:14N 46°05' W 122°56'0 0.0
2018-Jun-12 01:53N 46°05' W 122°56'1 1.8
2018-Jun-12 01:30N 46°05' W 122°55'3 6.4
2018-Jun-12 01:00N 46°02' W 122°53'2 3.1
2018-Jun-12 00:30N 46°04' W 122°53'1 2.7
2018-Jun-12 00:00N 46°03' W 122°53'0 0.0
2018-Jun-11 23:30N 46°03' W 122°53'2 4.3
2018-Jun-11 23:00N 46°05' W 122°54'4 7.0
2018-Jun-11 22:30N 46°07' W 122°58'1 1.1
2018-Jun-11 21:52N 46°07' W 122°59'2 5.3
2018-Jun-11 21:30N 46°06' W 122°57'1 0.9
2018-Jun-11 20:50N 46°05' W 122°56'0 0.0
2018-Jun-11 20:23N 46°05' W 122°56'0 0.0
2018-Jun-11 19:59N 46°05' W 122°56'0 0.0
2018-Jun-11 19:29N 46°05' W 122°56'0 0.0
2018-Jun-11 18:50N 46°05' W 122°56'0 0.0
2018-Jun-11 18:26N 46°05' W 122°56'0 0.0
2018-Jun-11 17:41N 46°05' W 122°56'0 0.0
2018-Jun-11 17:29N 46°05' W 122°56'0 0.0
2018-Jun-11 16:56N 46°05' W 122°56'0 0.0
2018-Jun-11 16:29N 46°05' W 122°56'0 0.0
2018-Jun-11 15:38N 46°05' W 122°56'0 0.0
2018-Jun-11 15:17N 46°05' W 122°56'0 0.0
2018-Jun-11 14:56N 46°05' W 122°56'0 0.0
2018-Jun-11 14:20N 46°05' W 122°56'0 0.0
2018-Jun-11 13:53N 46°05' W 122°56'0 0.0
2018-Jun-11 13:26N 46°05' W 122°56'0 0.0
2018-Jun-11 12:59N 46°05' W 122°56'0 0.0
2018-Jun-11 12:29N 46°05' W 122°56'0 0.4
2018-Jun-11 11:56N 46°06' W 122°56'1 3.1
2018-Jun-11 11:30N 46°06' W 122°58'0 0.5
2018-Jun-11 11:00N 46°07' W 122°58'2 1.9
2018-Jun-11 10:05N 46°05' W 122°56'0 0.0
2018-Jun-11 10:01N 46°05' W 122°56'0 0.0
2018-Jun-11 09:20N 46°05' W 122°56'0 0.0
2018-Jun-11 09:00N 46°05' W 122°56'0 0.0
2018-Jun-11 08:30N 46°05' W 122°56'0 0.0
2018-Jun-11 08:01N 46°05' W 122°56'0 0.0
2018-Jun-11 07:30N 46°05' W 122°56'0 0.0
2018-Jun-11 06:59N 46°05' W 122°56'0 0.0
2018-Jun-11 06:30N 46°05' W 122°56'0 0.0
2018-Jun-11 06:01N 46°05' W 122°56'1 0.8
2018-Jun-11 05:23N 46°06' W 122°56'0 0.0
2018-Jun-11 05:01N 46°06' W 122°56'1 1.4
2018-Jun-11 04:17N 46°06' W 122°58'0 0.1
2018-Jun-11 04:00N 46°06' W 122°58'1 2.1
2018-Jun-11 03:30N 46°06' W 122°56'0 0.0
2018-Jun-11 03:00N 46°06' W 122°56'0 0.0
2018-Jun-11 02:30N 46°06' W 122°56'1 1.1
2018-Jun-11 02:01N 46°05' W 122°56'0 0.0
2018-Jun-11 00:55N 46°05' W 122°56'0 0.0
2018-Jun-11 00:13N 46°05' W 122°56'0 0.0
2018-Jun-10 23:58N 46°05' W 122°56'0 0.0
2018-Jun-10 23:25N 46°05' W 122°56'0 0.0
2018-Jun-10 22:49N 46°05' W 122°56'0 0.0
2018-Jun-10 22:22N 46°05' W 122°56'1 3.6
2018-Jun-10 22:00N 46°06' W 122°57'0 0.1
2018-Jun-10 21:23N 46°06' W 122°57'1 3.9
2018-Jun-10 21:00N 46°06' W 122°55'0 0.4
2018-Jun-10 20:30N 46°05' W 122°55'0 0.8
2018-Jun-10 20:00N 46°05' W 122°56'0 0.0
2018-Jun-10 19:30N 46°05' W 122°56'0 0.0
2018-Jun-10 19:00N 46°05' W 122°56'0 0.0
2018-Jun-10 18:30N 46°05' W 122°56'0 0.0
2018-Jun-10 18:00N 46°05' W 122°56'0 0.0
2018-Jun-10 17:30N 46°05' W 122°56'0 0.0
2018-Jun-10 16:57N 46°05' W 122°56'0 0.0
2018-Jun-10 16:30N 46°05' W 122°56'0 0.0
2018-Jun-10 15:40N 46°05' W 122°56'0 0.0
2018-Jun-10 15:30N 46°05' W 122°56'0 0.0
2018-Jun-10 15:00N 46°05' W 122°56'0 0.0
2018-Jun-10 14:30N 46°05' W 122°56'0 0.0
2018-Jun-10 13:30N 46°05' W 122°56'0 0.0
2018-Jun-10 13:00N 46°05' W 122°56'0 0.0
2018-Jun-10 12:30N 46°05' W 122°56'0 0.0
2018-Jun-10 12:00N 46°05' W 122°56'0 0.0
2018-Jun-10 11:30N 46°05' W 122°56'0 0.0
2018-Jun-10 11:00N 46°05' W 122°56'1 2.1
2018-Jun-10 10:30N 46°06' W 122°57'0 0.5
2018-Jun-10 10:00N 46°06' W 122°57'0 0.0
2018-Jun-10 09:30N 46°06' W 122°57'1 2.7
2018-Jun-10 09:00N 46°05' W 122°56'0 0.0
2018-Jun-10 08:30N 46°05' W 122°56'0 0.0
2018-Jun-10 08:00N 46°05' W 122°56'0 0.0
2018-Jun-10 07:15N 46°05' W 122°56'0 0.0
2018-Jun-10 06:59N 46°05' W 122°56'0 0.0
2018-Jun-10 06:30N 46°05' W 122°56'0 0.0
2018-Jun-10 06:00N 46°05' W 122°56'0 0.0
2018-Jun-10 05:30N 46°05' W 122°56'0 0.0
2018-Jun-10 05:01N 46°05' W 122°56'0 0.0
2018-Jun-10 04:30N 46°05' W 122°56'0 0.0
2018-Jun-10 04:00N 46°05' W 122°56'0 0.0
2018-Jun-10 03:11N 46°05' W 122°56'0 0.0
2018-Jun-10 03:00N 46°05' W 122°56'0 0.0
2018-Jun-10 02:15N 46°05' W 122°56'0 0.0
2018-Jun-10 02:00N 46°05' W 122°56'1 1.8
2018-Jun-10 01:30N 46°05' W 122°55'7 6.6
2018-Jun-10 00:27N 45°59' W 122°50'0 0.0
2018-Jun-10 00:00N 45°59' W 122°50'1 2.3
2018-Jun-09 23:30N 45°58' W 122°49'4 8.5
2018-Jun-09 23:00N 46°02' W 122°52'2 4.0
2018-Jun-09 22:30N 46°04' W 122°53'0 0.0
2018-Jun-09 22:00N 46°04' W 122°53'0 0.0
2018-Jun-09 21:30N 46°04' W 122°53'0 0.1
2018-Jun-09 21:00N 46°03' W 122°53'0 0.0
2018-Jun-09 20:30N 46°03' W 122°53'0 0.0
2018-Jun-09 20:00N 46°04' W 122°53'4 7.9
2018-Jun-09 19:30N 45°60' W 122°51'1 1.5
2018-Jun-09 18:50N 45°59' W 122°50'0 0.3
2018-Jun-09 18:30N 45°59' W 122°50'0 0.2
2018-Jun-09 18:00N 45°59' W 122°50'2 3.1
2018-Jun-09 17:30N 46°00' W 122°51'5 9.9
2018-Jun-09 17:00N 46°05' W 122°54'1 2.8
2018-Jun-09 16:30N 46°05' W 122°56'1 2.7
2018-Jun-09 16:00N 46°06' W 122°58'1 0.9
2018-Jun-09 15:00N 46°06' W 122°56'0 0.0
2018-Jun-09 14:30N 46°06' W 122°56'1 0.7
2018-Jun-09 13:47N 46°05' W 122°56'0 0.0
2018-Jun-09 13:27N 46°05' W 122°56'0 0.0
2018-Jun-09 13:00N 46°05' W 122°56'0 0.0
2018-Jun-09 12:30N 46°05' W 122°56'0 0.0
2018-Jun-09 11:57N 46°05' W 122°56'0 0.0
2018-Jun-09 11:30N 46°05' W 122°56'0 0.0
2018-Jun-09 11:00N 46°05' W 122°56'0 0.0
2018-Jun-09 10:30N 46°05' W 122°56'0 0.0
2018-Jun-09 10:00N 46°05' W 122°56'0 0.0
2018-Jun-09 09:30N 46°05' W 122°56'0 0.0
2018-Jun-09 09:00N 46°05' W 122°56'0 0.0
2018-Jun-09 08:30N 46°05' W 122°56'0 0.0
2018-Jun-09 07:57N 46°05' W 122°56'0 0.0
2018-Jun-09 07:12N 46°05' W 122°56'0 0.0
2018-Jun-09 06:57N 46°05' W 122°56'0 0.0
2018-Jun-09 06:30N 46°05' W 122°56'  

Dump ship's entire track history